Wetterdaten: aktuell Donnerstag, 14.11.2019 22:40
Datum Zeit Temp. A. Feuchte A. Luftdruck Regen Wind Taupunkt Windchill Windben
14.11.2019 22:40 1,5 C 81 % 1002,5 hPa 0,0 l/m 5,8 km/h (2 Bft) -1,4 C 1,5 C 11,3 km/h (2 Bft)
14.11.2019 22:35 1,4 C 81 % 1002,5 hPa 0,0 l/m 6,7 km/h (2 Bft) -1,5 C 1,1 C 12,9 km/h (3 Bft)
14.11.2019 22:30 1,4 C 81 % 1002,6 hPa 0,0 l/m 5,5 km/h (1 Bft) -1,5 C 1,4 C 11,3 km/h (2 Bft)
14.11.2019 22:25 1,4 C 81 % 1002,8 hPa 0,0 l/m 5,8 km/h (2 Bft) -1,5 C 1,4 C 11,3 km/h (2 Bft)
14.11.2019 22:20 1,3 C 82 % 1002,7 hPa 0,0 l/m 6,3 km/h (2 Bft) -1,4 C 1,3 C 12,9 km/h (3 Bft)
14.11.2019 22:15 1,1 C 82 % 1002,6 hPa 0,0 l/m 5,9 km/h (2 Bft) -1,6 C 1,1 C 9,7 km/h (2 Bft)
14.11.2019 22:10 0,9 C 82 % 1002,7 hPa 0,0 l/m 4,6 km/h (1 Bft) -1,8 C 0,9 C 8,0 km/h (2 Bft)
14.11.2019 22:05 0,9 C 81 % 1002,8 hPa 0,0 l/m 3,6 km/h (1 Bft) -2,0 C 0,9 C 6,4 km/h (2 Bft)
14.11.2019 22:00 0,8 C 81 % 1002,9 hPa 0,0 l/m 3,3 km/h (1 Bft) -2,1 C 0,8 C 4,8 km/h (1 Bft)
14.11.2019 21:55 0,9 C 81 % 1003,3 hPa 0,0 l/m 0,0 km/h (0 Bft) -2,0 C 0,9 C 0,0 km/h (0 Bft)
14.11.2019 21:50 0,9 C 81 % 1003,3 hPa 0,0 l/m 0,3 km/h (0 Bft) -2,0 C 0,9 C 1,6 km/h (1 Bft)
14.11.2019 21:45 1,1 C 80 % 1003,1 hPa 0,0 l/m 2,1 km/h (1 Bft) -2,0 C 1,1 C 4,8 km/h (1 Bft)
14.11.2019 21:40 1,1 C 80 % 1003,0 hPa 0,0 l/m 1,7 km/h (1 Bft) -2,0 C 1,1 C 4,8 km/h (1 Bft)
14.11.2019 21:35 1,3 C 80 % 1003,1 hPa 0,0 l/m 1,3 km/h (1 Bft) -1,8 C 1,3 C 4,8 km/h (1 Bft)
14.11.2019 21:30 1,4 C 79 % 1003,4 hPa 0,0 l/m 2,1 km/h (1 Bft) -1,8 C 1,4 C 4,8 km/h (1 Bft)
14.11.2019 21:25 1,5 C 79 % 1003,2 hPa 0,0 l/m 3,0 km/h (1 Bft) -1,7 C 1,5 C 6,4 km/h (2 Bft)
14.11.2019 21:20 1,7 C 79 % 1003,3 hPa 0,0 l/m 3,6 km/h (1 Bft) -1,5 C 1,7 C 6,4 km/h (2 Bft)
14.11.2019 21:15 1,7 C 79 % 1003,2 hPa 0,0 l/m 4,9 km/h (1 Bft) -1,5 C 1,7 C 9,7 km/h (2 Bft)
14.11.2019 21:10 1,8 C 79 % 1003,4 hPa 0,0 l/m 5,5 km/h (1 Bft) -1,4 C 1,8 C 11,3 km/h (2 Bft)
14.11.2019 21:05 1,8 C 79 % 1003,4 hPa 0,0 l/m 5,9 km/h (2 Bft) -1,4 C 1,8 C 11,3 km/h (2 Bft)
14.11.2019 21:00 1,8 C 79 % 1003,4 hPa 0,0 l/m 6,3 km/h (2 Bft) -1,4 C 1,8 C 11,3 km/h (2 Bft)
_ Min-Zeit 05:25 13:35 22:35 - 03:25 05:25 06:20 03:25
Minimum _ -0,9 C 59 % 1002,5 hPa - 0,0 km/h (0 Bft) -3,3 C -1,2 C 0,0 km/h (0 Bft)
_ Max-Zeit 13:15 05:45 09:15 00:00 14:00 12:35 13:40 14:00
Maximum _ 8,9 C 87 % 1007,5 hPa 0,0 l/m 15,5 km/h
O (3 Bft)
2,1 C 8,1 C 24,1 km/h
O (4 Bft)
Durchschnitt _ 3,4 C 77 % 1005,6 hPa #0,0 l/m 5,8 km/h (2 Bft) -0,4 C 2,7 C 10,9 km/h (2 Bft)